Amesville, Ohio
Current Conditions -  °F | °C
As of 4:50 PM on Wednesday 28 Jan 2015 (Local Time) from KUNI Reporting Station
Clear Clear  
Wind Chill: 31°   Ceiling: Unl
Heat Index: 31°   Visibility: 10mi
Dew Point: 12°   Wind: 3mph
Humidity: 45%   Direction: 170°S
Pressure: 30.32"   Gusts: NA
Location:  39.4°N, 81.96°W
Report Text: KUNI 282150Z AUTO 17003KT 10SM CLR 00/M11 A3032 RMK AO2 T10051112
Loading
Personal Weather Stations






























Interactive Weather Map New forecast layout! Learn more

10-Day Weather Forecast

Advertisements
Track Severe Weather on mobile